Temp: 17.3°C   Baro: 1010.5mb
  Wind: 2.9mph   Dir: WNW (282°)
  Rain: 0.8mm (0.0mm/hr)
  Solar: 90W/m2  Hum: 91%
 
Bath Spa Weather Station Historical Data
Daily Summary for June 26, 2019 Units:  Both    English   Metric
Daily Weekly Monthly Yearly Custom
  High: Low: Average:
Temperature: 73.2 °F /  22.9 °C 62.2 °F /  16.8 °C 67.1 °F /  19.5 °C
Dew Point: 62.4 °F /  16.9 °C 55.2 °F /  12.9 °C 59.3 °F /  15.2 °C
Humidity: 90% 62.4% 77%
Wind Speed: 7.5mph /  12.1km/h - 3.1mph /  5km/h
Wind Gust: 14mph /  22.5km/h - -
Wind- - West
Pressure: 29.87 in /  1011.4 hPa 29.81 in /  1009.4 hPa -
Precipitation: 0.00 in /  0 mm    
Historical Graphs
 
 
Tabular Data for June 26, 2019
Time Temperature Dew Point Pressure Wind Wind Speed Wind Gust Humidity Rainfall Rate (Hourly) solar
00:04 68.7 °F /  20.4 °C 62.4 °F /  16.9 °C 29.81in /  1009.4hPa SW 0.1mph /  0.2km/h 1mph /  1.6km/h 80.4% 0.00in /  0mm 0 W/m2
00:09 68.4 °F /  20.2 °C 62.4 °F /  16.9 °C 29.81in /  1009.4hPa SW 0.5mph /  0.8km/h 2mph /  3.2km/h 81.2% 0.00in /  0mm 0 W/m2
00:14 68.2 °F /  20.1 °C 62.4 °F /  16.9 °C 29.81in /  1009.4hPa SW 0.1mph /  0.2km/h 1mph /  1.6km/h 82% 0.00in /  0mm 0 W/m2
00:19 68 °F /  20 °C 62.2 °F /  16.8 °C 29.82in /  1009.7hPa Calm     82% 0.00in /  0mm 0 W/m2
00:24 68 °F /  20 °C 62.2 °F /  16.8 °C 29.82in /  1009.7hPa SW 0.4mph /  0.6km/h 3mph /  4.8km/h 82% 0.00in /  0mm 0 W/m2
00:29 67.9 °F /  19.9 °C 62.2 °F /  16.8 °C 29.82in /  1009.7hPa SW 1.9mph /  3.1km/h 4mph /  6.4km/h 82% 0.00in /  0mm 0 W/m2
00:34 67.8 °F /  19.9 °C 62.1 °F /  16.7 °C 29.82in /  1009.7hPa SW 0.6mph /  1km/h 4mph /  6.4km/h 82% 0.00in /  0mm 0 W/m2
00:39 67.6 °F /  19.8 °C 61.9 °F /  16.6 °C 29.81in /  1009.4hPa Calm   2mph /  3.2km/h 82% 0.00in /  0mm 0 W/m2
00:44 67.5 °F /  19.7 °C 62 °F /  16.7 °C 29.81in /  1009.4hPa SW 0.3mph /  0.5km/h 2mph /  3.2km/h 82.6% 0.00in /  0mm 0 W/m2
00:49 67.4 °F /  19.7 °C 62 °F /  16.7 °C 29.82in /  1009.7hPa SW 0.3mph /  0.5km/h 2mph /  3.2km/h 83% 0.00in /  0mm 0 W/m2
00:54 67.1 °F /  19.5 °C 61.7 °F /  16.5 °C 29.82in /  1009.7hPa SW 1.1mph /  1.8km/h 4mph /  6.4km/h 83% 0.00in /  0mm 0 W/m2
00:59 66.9 °F /  19.4 °C 61.5 °F /  16.4 °C 29.82in /  1009.7hPa SW 1.6mph /  2.6km/h 5mph /  8km/h 83% 0.00in /  0mm 0 W/m2
01:04 66.7 °F /  19.3 °C 61.3 °F /  16.3 °C 29.81in /  1009.4hPa WSW 2.8mph /  4.5km/h 6mph /  9.7km/h 83% 0.00in /  0mm 0 W/m2
01:09 66.7 °F /  19.3 °C 61.3 °F /  16.3 °C 29.82in /  1009.7hPa WSW 0.8mph /  1.3km/h 6mph /  9.7km/h 82.9% 0.00in /  0mm 0 W/m2
01:14 66.7 °F /  19.3 °C 61 °F /  16.1 °C 29.82in /  1009.7hPa WSW 1.8mph /  2.9km/h 5mph /  8km/h 82% 0.00in /  0mm 0 W/m2
01:19 66.7 °F /  19.3 °C 61 °F /  16.1 °C 29.82in /  1009.7hPa WSW 1.7mph /  2.7km/h 6mph /  9.7km/h 82% 0.00in /  0mm 0 W/m2
01:24 66.7 °F /  19.3 °C 61 °F /  16.1 °C 29.82in /  1009.7hPa WSW 2.2mph /  3.5km/h 5mph /  8km/h 82% 0.00in /  0mm 0 W/m2
01:29 66.5 °F /  19.2 °C 60.9 °F /  16.1 °C 29.82in /  1009.7hPa West 2mph /  3.2km/h 5mph /  8km/h 82% 0.00in /  0mm 0 W/m2
01:34 66.2 °F /  19 °C 60.6 °F /  15.9 °C 29.83in /  1010hPa West 0.1mph /  0.2km/h 4mph /  6.4km/h 82% 0.00in /  0mm 0 W/m2
01:39 66.2 °F /  19 °C 60.8 °F /  16 °C 29.82in /  1009.7hPa West 0.5mph /  0.8km/h 4mph /  6.4km/h 82.8% 0.00in /  0mm 0 W/m2
01:44 66.2 °F /  19 °C 60.8 °F /  16 °C 29.83in /  1010hPa West 0.1mph /  0.2km/h 1mph /  1.6km/h 83% 0.00in /  0mm 0 W/m2
01:49 66 °F /  18.9 °C 60.6 °F /  15.9 °C 29.83in /  1010hPa West 0.2mph /  0.3km/h 3mph /  4.8km/h 83% 0.00in /  0mm 0 W/m2
01:54 65.9 °F /  18.8 °C 60.6 °F /  15.9 °C 29.83in /  1010hPa West 0.3mph /  0.5km/h 2mph /  3.2km/h 83% 0.00in /  0mm 0 W/m2
01:59 65.8 °F /  18.8 °C 60.6 °F /  15.9 °C 29.83in /  1010hPa West 0.5mph /  0.8km/h 2mph /  3.2km/h 83% 0.00in /  0mm 0 W/m2
02:04 65.7 °F /  18.7 °C 60.4 °F /  15.8 °C 29.83in /  1010hPa Calm   1mph /  1.6km/h 83% 0.00in /  0mm 0 W/m2
02:09 65.7 °F /  18.7 °C 60.4 °F /  15.8 °C 29.83in /  1010hPa West 1mph /  1.6km/h 3mph /  4.8km/h 83% 0.00in /  0mm 0 W/m2
02:14 65.4 °F /  18.6 °C 60.2 °F /  15.7 °C 29.83in /  1010hPa West 0.7mph /  1.1km/h 3mph /  4.8km/h 83% 0.00in /  0mm 0 W/m2
02:19 65.3 °F /  18.5 °C 60.3 °F /  15.7 °C 29.84in /  1010.4hPa West 0.7mph /  1.1km/h 3mph /  4.8km/h 84% 0.00in /  0mm 0 W/m2
02:24 65.1 °F /  18.4 °C 60.1 °F /  15.6 °C 29.83in /  1010hPa West 1.2mph /  1.9km/h 5mph /  8km/h 84% 0.00in /  0mm 0 W/m2
02:29 65 °F /  18.3 °C 60 °F /  15.6 °C 29.83in /  1010hPa West 1.4mph /  2.3km/h 4mph /  6.4km/h 84% 0.00in /  0mm 0 W/m2
02:34 64.9 °F /  18.3 °C 59.9 °F /  15.5 °C 29.83in /  1010hPa West 0.3mph /  0.5km/h 3mph /  4.8km/h 84% 0.00in /  0mm 0 W/m2
02:39 64.9 °F /  18.3 °C 59.9 °F /  15.5 °C 29.83in /  1010hPa West 0.3mph /  0.5km/h 3mph /  4.8km/h 84% 0.00in /  0mm 0 W/m2
02:44 65 °F /  18.3 °C 60 °F /  15.6 °C 29.83in /  1010hPa West 0.7mph /  1.1km/h 3mph /  4.8km/h 84.1% 0.00in /  0mm 0 W/m2
02:49 65.1 °F /  18.4 °C 60.3 °F /  15.7 °C 29.83in /  1010hPa WSW 1.3mph /  2.1km/h 5mph /  8km/h 84.8% 0.00in /  0mm 0 W/m2
02:54 64.9 °F /  18.3 °C 60.3 °F /  15.7 °C 29.83in /  1010hPa WSW 0.7mph /  1.1km/h 5mph /  8km/h 85% 0.00in /  0mm 0 W/m2
02:59 64.8 °F /  18.2 °C 60.1 °F /  15.6 °C 29.83in /  1010hPa WSW 0.8mph /  1.3km/h 4mph /  6.4km/h 85% 0.00in /  0mm 0 W/m2
03:04 64.8 °F /  18.2 °C 60.1 °F /  15.6 °C 29.83in /  1010hPa WSW 0.1mph /  0.2km/h 2mph /  3.2km/h 85% 0.00in /  0mm 0 W/m2
03:09 64.7 °F /  18.2 °C 60 °F /  15.6 °C 29.84in /  1010.4hPa WSW 2.2mph /  3.5km/h 6mph /  9.7km/h 85% 0.00in /  0mm 0 W/m2
03:14 64.3 °F /  17.9 °C 59.7 °F /  15.4 °C 29.84in /  1010.4hPa SW 2.3mph /  3.7km/h 6mph /  9.7km/h 85.4% 0.00in /  0mm 0 W/m2
03:19 64.1 °F /  17.8 °C 59.8 °F /  15.4 °C 29.84in /  1010.4hPa SW 2.7mph /  4.3km/h 7mph /  11.3km/h 86% 0.00in /  0mm 0 W/m2
03:24 64 °F /  17.8 °C 59.7 °F /  15.4 °C 29.84in /  1010.4hPa SW 0.5mph /  0.8km/h 7mph /  11.3km/h 86% 0.00in /  0mm 0 W/m2
03:29 63.9 °F /  17.7 °C 60 °F /  15.6 °C 29.84in /  1010.4hPa SW 1.8mph /  2.9km/h 5mph /  8km/h 87% 0.00in /  0mm 0 W/m2
03:34 63.8 °F /  17.7 °C 59.8 °F /  15.4 °C 29.84in /  1010.4hPa SW 1.2mph /  1.9km/h 5mph /  8km/h 87% 0.00in /  0mm 0 W/m2
03:39 63.7 °F /  17.6 °C 59.7 °F /  15.4 °C 29.84in /  1010.4hPa SW 0.8mph /  1.3km/h 4mph /  6.4km/h 87% 0.00in /  0mm 0 W/m2
03:44 63.5 °F /  17.5 °C 59.5 °F /  15.3 °C 29.84in /  1010.4hPa SW 1mph /  1.6km/h 4mph /  6.4km/h 87% 0.00in /  0mm 0 W/m2
03:49 63.5 °F /  17.5 °C 59.5 °F /  15.3 °C 29.84in /  1010.4hPa SW 1.1mph /  1.8km/h 5mph /  8km/h 87% 0.00in /  0mm 0 W/m2
03:54 63.5 °F /  17.5 °C 59.5 °F /  15.3 °C 29.84in /  1010.4hPa SSW 1.7mph /  2.7km/h 6mph /  9.7km/h 87% 0.00in /  0mm 0 W/m2
03:59 63.5 °F /  17.5 °C 59.5 °F /  15.3 °C 29.84in /  1010.4hPa SW 1.8mph /  2.9km/h 6mph /  9.7km/h 87% 0.00in /  0mm 0 W/m2
04:04 63.4 °F /  17.4 °C 59.5 °F /  15.3 °C 29.84in /  1010.4hPa SW 0.8mph /  1.3km/h 6mph /  9.7km/h 87.1% 0.00in /  0mm 0 W/m2
04:09 63.3 °F /  17.4 °C 59.7 °F /  15.4 °C 29.83in /  1010hPa SW 1.3mph /  2.1km/h 6mph /  9.7km/h 87.8% 0.00in /  0mm 0 W/m2
04:14 63.3 °F /  17.4 °C 59.7 °F /  15.4 °C 29.84in /  1010.4hPa WSW 1.1mph /  1.8km/h 5mph /  8km/h 88% 0.00in /  0mm 0 W/m2
04:19 63.1 °F /  17.3 °C 59.5 °F /  15.3 °C 29.83in /  1010hPa WSW 0.4mph /  0.6km/h 4mph /  6.4km/h 88% 0.00in /  0mm 0 W/m2
04:24 63 °F /  17.2 °C 59.4 °F /  15.2 °C 29.83in /  1010hPa WSW 1.4mph /  2.3km/h 4mph /  6.4km/h 88% 0.00in /  0mm 0 W/m2
04:29 63 °F /  17.2 °C 59.4 °F /  15.2 °C 29.83in /  1010hPa WSW 1.9mph /  3.1km/h 4mph /  6.4km/h 88% 0.00in /  0mm 0 W/m2
04:34 62.8 °F /  17.1 °C 59.2 °F /  15.1 °C 29.82in /  1009.7hPa WSW 0.7mph /  1.1km/h 4mph /  6.4km/h 88% 0.00in /  0mm 0 W/m2
04:39 62.6 °F /  17 °C 59.2 °F /  15.1 °C 29.82in /  1009.7hPa WSW 0.3mph /  0.5km/h 3mph /  4.8km/h 88.4% 0.00in /  0mm 0 W/m2
04:44 62.6 °F /  17 °C 59.4 °F /  15.2 °C 29.82in /  1009.7hPa WSW 0.5mph /  0.8km/h 3mph /  4.8km/h 89% 0.00in /  0mm 0 W/m2
04:49 62.4 °F /  16.9 °C 59.2 °F /  15.1 °C 29.82in /  1009.7hPa WSW 1.2mph /  1.9km/h 4mph /  6.4km/h 89% 0.00in /  0mm 0 W/m2
04:54 62.3 °F /  16.8 °C 59.1 °F /  15.1 °C 29.82in /  1009.7hPa Calm   4mph /  6.4km/h 89% 0.00in /  0mm 0 W/m2
04:59 62.2 °F /  16.8 °C 59 °F /  15 °C 29.82in /  1009.7hPa Calm   1mph /  1.6km/h 89% 0.00in /  0mm 0 W/m2
05:04 62.2 °F /  16.8 °C 59 °F /  15 °C 29.82in /  1009.7hPa Calm   1mph /  1.6km/h 89% 0.00in /  0mm 0 W/m2
05:09 62.2 °F /  16.8 °C 59 °F /  15 °C 29.83in /  1010hPa Calm   1mph /  1.6km/h 89% 0.00in /  0mm 0 W/m2
05:14 62.2 °F /  16.8 °C 59 °F /  15 °C 29.83in /  1010hPa WSW 0.9mph /  1.4km/h 3mph /  4.8km/h 89% 0.00in /  0mm 0 W/m2
05:19 62.2 °F /  16.8 °C 59.2 °F /  15.1 °C 29.83in /  1010hPa WSW 1.7mph /  2.7km/h 5mph /  8km/h 89.9% 0.00in /  0mm 0 W/m2
05:24 62.2 °F /  16.8 °C 59.2 °F /  15.1 °C 29.83in /  1010hPa WSW 1.2mph /  1.9km/h 5mph /  8km/h 90% 0.00in /  0mm 0 W/m2
05:29 62.2 °F /  16.8 °C 59.2 °F /  15.1 °C 29.83in /  1010hPa WSW 0.3mph /  0.5km/h 3mph /  4.8km/h 90% 0.00in /  0mm 0 W/m2
05:34 62.3 °F /  16.8 °C 59.3 °F /  15.2 °C 29.83in /  1010hPa WSW 0.2mph /  0.3km/h 2mph /  3.2km/h 90% 0.00in /  0mm 5 W/m2
05:39 62.4 °F /  16.9 °C 59.4 °F /  15.2 °C 29.83in /  1010hPa WSW 0.1mph /  0.2km/h 2mph /  3.2km/h 90% 0.00in /  0mm 7 W/m2
05:44 62.4 °F /  16.9 °C 59.4 °F /  15.2 °C 29.83in /  1010hPa Calm   1mph /  1.6km/h 90% 0.00in /  0mm 11 W/m2
05:49 62.4 °F /  16.9 °C 59.4 °F /  15.2 °C 29.83in /  1010hPa Calm     90% 0.00in /  0mm 11 W/m2
05:54 62.5 °F /  16.9 °C 59.5 °F /  15.3 °C 29.84in /  1010.4hPa WSW 0.1mph /  0.2km/h 1mph /  1.6km/h 90% 0.00in /  0mm 16 W/m2
05:59 62.6 °F /  17 °C 59.5 °F /  15.3 °C 29.84in /  1010.4hPa Calm   1mph /  1.6km/h 90% 0.00in /  0mm 23 W/m2
06:04 62.9 °F /  17.2 °C 59.8 °F /  15.4 °C 29.84in /  1010.4hPa WSW 1.4mph /  2.3km/h 5mph /  8km/h 90% 0.00in /  0mm 33 W/m2
06:09 63.1 °F /  17.3 °C 60.1 °F /  15.6 °C 29.85in /  1010.7hPa WSW 2.2mph /  3.5km/h 5mph /  8km/h 90% 0.00in /  0mm 44 W/m2
06:14 63.3 °F /  17.4 °C 60.1 °F /  15.6 °C 29.85in /  1010.7hPa WSW 1.7mph /  2.7km/h 5mph /  8km/h 89% 0.00in /  0mm 51 W/m2
06:19 63.3 °F /  17.4 °C 60.1 °F /  15.6 °C 29.85in /  1010.7hPa SSW 6.2mph /  10km/h 8mph /  12.9km/h 89% 0.00in /  0mm 56 W/m2
06:24 63.3 °F /  17.4 °C 59.9 °F /  15.5 °C 29.85in /  1010.7hPa SSW 3.4mph /  5.5km/h 8mph /  12.9km/h 88.4% 0.00in /  0mm 54 W/m2
06:29 63.4 °F /  17.4 °C 59.8 °F /  15.4 °C 29.86in /  1011.1hPa SSW 1.2mph /  1.9km/h 5mph /  8km/h 88% 0.00in /  0mm 49 W/m2
06:34 63.5 °F /  17.5 °C 59.9 °F /  15.5 °C 29.86in /  1011.1hPa SSW 0.9mph /  1.4km/h 5mph /  8km/h 88% 0.00in /  0mm 51 W/m2
06:39 63.6 °F /  17.6 °C 60 °F /  15.6 °C 29.86in /  1011.1hPa SSW 0.4mph /  0.6km/h 3mph /  4.8km/h 88% 0.00in /  0mm 49 W/m2
06:44 63.7 °F /  17.6 °C 60.1 °F /  15.6 °C 29.87in /  1011.4hPa SSW 1.7mph /  2.7km/h 4mph /  6.4km/h 88% 0.00in /  0mm 53 W/m2
06:49 63.7 °F /  17.6 °C 60.1 °F /  15.6 °C 29.87in /  1011.4hPa SSW 2.6mph /  4.2km/h 6mph /  9.7km/h 88% 0.00in /  0mm 56 W/m2
06:54 63.9 °F /  17.7 °C 60.3 °F /  15.7 °C 29.87in /  1011.4hPa South 3.2mph /  5.1km/h 8mph /  12.9km/h 88% 0.00in /  0mm 58 W/m2
06:59 63.9 °F /  17.7 °C 60.1 °F /  15.6 °C 29.87in /  1011.4hPa South 3mph /  4.8km/h 8mph /  12.9km/h 87.4% 0.00in /  0mm 60 W/m2
07:04 64 °F /  17.8 °C 60.4 °F /  15.8 °C 29.87in /  1011.4hPa South 1.6mph /  2.6km/h 7mph /  11.3km/h 88% 0.00in /  0mm 42 W/m2
07:09 64 °F /  17.8 °C 60.4 °F /  15.8 °C 29.86in /  1011.1hPa South 4.1mph /  6.6km/h 9mph /  14.5km/h 88% 0.00in /  0mm 28 W/m2
07:14 64 °F /  17.8 °C 60.4 °F /  15.8 °C 29.85in /  1010.7hPa SSW 3.3mph /  5.3km/h 6mph /  9.7km/h 88% 0.00in /  0mm 30 W/m2
07:19 64 °F /  17.8 °C 60.4 °F /  15.8 °C 29.85in /  1010.7hPa SSW 1.3mph /  2.1km/h 5mph /  8km/h 87.8% 0.00in /  0mm 30 W/m2
07:24 64 °F /  17.8 °C 60.1 °F /  15.6 °C 29.85in /  1010.7hPa SSW 0.5mph /  0.8km/h 4mph /  6.4km/h 87% 0.00in /  0mm 33 W/m2
07:29 64.2 °F /  17.9 °C 60.4 °F /  15.8 °C 29.85in /  1010.7hPa SSW 0.7mph /  1.1km/h 3mph /  4.8km/h 87.3% 0.00in /  0mm 69 W/m2
07:34 64.2 °F /  17.9 °C 60.3 °F /  15.7 °C 29.85in /  1010.7hPa SSW 1.7mph /  2.7km/h 5mph /  8km/h 87.1% 0.00in /  0mm 86 W/m2
07:39 64.2 °F /  17.9 °C 60.3 °F /  15.7 °C 29.86in /  1011.1hPa SSW 2.3mph /  3.7km/h 6mph /  9.7km/h 87% 0.00in /  0mm 104 W/m2
07:44 64.3 °F /  17.9 °C 60.3 °F /  15.7 °C 29.86in /  1011.1hPa SW 3.2mph /  5.1km/h 7mph /  11.3km/h 87% 0.00in /  0mm 100 W/m2
07:49 64.4 °F /  18 °C 60.4 °F /  15.8 °C 29.86in /  1011.1hPa SW 2.2mph /  3.5km/h 6mph /  9.7km/h 87% 0.00in /  0mm 95 W/m2
07:54 64.5 °F /  18.1 °C 60.5 °F /  15.8 °C 29.86in /  1011.1hPa SW 3.8mph /  6.1km/h 11mph /  17.7km/h 87% 0.00in /  0mm 63 W/m2
07:59 64.4 °F /  18 °C 60.4 °F /  15.8 °C 29.86in /  1011.1hPa WSW 3.2mph /  5.1km/h 11mph /  17.7km/h 87% 0.00in /  0mm 93 W/m2
08:04 64.5 °F /  18.1 °C 60.5 °F /  15.8 °C 29.85in /  1010.7hPa WSW 1.9mph /  3.1km/h 7mph /  11.3km/h 87% 0.00in /  0mm 97 W/m2
08:09 64.7 °F /  18.2 °C 60.7 °F /  15.9 °C 29.85in /  1010.7hPa WSW 0.9mph /  1.4km/h 4mph /  6.4km/h 87% 0.00in /  0mm 90 W/m2
08:14 64.8 °F /  18.2 °C 60.8 °F /  16 °C 29.85in /  1010.7hPa West 1.6mph /  2.6km/h 5mph /  8km/h 87% 0.00in /  0mm 109 W/m2
08:19 64.9 °F /  18.3 °C 61 °F /  16.1 °C 29.85in /  1010.7hPa West 1.9mph /  3.1km/h 6mph /  9.7km/h 87% 0.00in /  0mm 125 W/m2
08:24 65 °F /  18.3 °C 61.1 °F /  16.2 °C 29.85in /  1010.7hPa WSW 1.2mph /  1.9km/h 6mph /  9.7km/h 87% 0.00in /  0mm 139 W/m2
08:29 65.2 °F /  18.4 °C 60.9 °F /  16.1 °C 29.85in /  1010.7hPa WSW 1.4mph /  2.3km/h 4mph /  6.4km/h 86% 0.00in /  0mm 162 W/m2
08:34 65.3 °F /  18.5 °C 61 °F /  16.1 °C 29.84in /  1010.4hPa SW 2.4mph /  3.9km/h 6mph /  9.7km/h 86% 0.00in /  0mm 185 W/m2
08:39 65.3 °F /  18.5 °C 61 °F /  16.1 °C 29.84in /  1010.4hPa West 2.7mph /  4.3km/h 8mph /  12.9km/h 86% 0.00in /  0mm 181 W/m2
08:44 65.7 °F /  18.7 °C 61.3 °F /  16.3 °C 29.84in /  1010.4hPa West 1.6mph /  2.6km/h 4mph /  6.4km/h 86% 0.00in /  0mm 137 W/m2
08:49 65.7 °F /  18.7 °C 61.3 °F /  16.3 °C 29.85in /  1010.7hPa WSW 2.1mph /  3.4km/h 5mph /  8km/h 86% 0.00in /  0mm 123 W/m2
08:54 65.7 °F /  18.7 °C 61.3 °F /  16.3 °C 29.85in /  1010.7hPa SW 1.7mph /  2.7km/h 7mph /  11.3km/h 86% 0.00in /  0mm 109 W/m2
08:59 65.7 °F /  18.7 °C 61.2 °F /  16.2 °C 29.85in /  1010.7hPa SW 2.5mph /  4km/h 7mph /  11.3km/h 85.7% 0.00in /  0mm 86 W/m2
09:04 65.7 °F /  18.7 °C 61 °F /  16.1 °C 29.85in /  1010.7hPa SSW 2.5mph /  4km/h 7mph /  11.3km/h 85% 0.00in /  0mm 76 W/m2
09:09 65.7 °F /  18.7 °C 61 °F /  16.1 °C 29.85in /  1010.7hPa SSW 3.5mph /  5.6km/h 7mph /  11.3km/h 85% 0.00in /  0mm 79 W/m2
09:14 65.7 °F /  18.7 °C 61 °F /  16.1 °C 29.85in /  1010.7hPa SW 1.9mph /  3.1km/h 7mph /  11.3km/h 85% 0.00in /  0mm 83 W/m2
09:19 65.7 °F /  18.7 °C 61 °F /  16.1 °C 29.84in /  1010.4hPa WSW 2.4mph /  3.9km/h 9mph /  14.5km/h 85% 0.00in /  0mm 104 W/m2
09:24 65.7 °F /  18.7 °C 61 °F /  16.1 °C 29.84in /  1010.4hPa WSW 1.3mph /  2.1km/h 5mph /  8km/h 85% 0.00in /  0mm 142 W/m2
09:29 65.8 °F /  18.8 °C 61.2 °F /  16.2 °C 29.84in /  1010.4hPa WSW 1.5mph /  2.4km/h 5mph /  8km/h 85% 0.00in /  0mm 213 W/m2
09:34 66 °F /  18.9 °C 61.3 °F /  16.3 °C 29.84in /  1010.4hPa WSW 1.2mph /  1.9km/h 4mph /  6.4km/h 85% 0.00in /  0mm 244 W/m2
09:39 66.2 °F /  19 °C 61.5 °F /  16.4 °C 29.85in /  1010.7hPa WSW 1mph /  1.6km/h 4mph /  6.4km/h 85% 0.00in /  0mm 271 W/m2
09:44 66.5 °F /  19.2 °C 61.5 °F /  16.4 °C 29.84in /  1010.4hPa WSW 4.2mph /  6.8km/h 7mph /  11.3km/h 84.4% 0.00in /  0mm 257 W/m2
09:49 66.7 °F /  19.3 °C 61.6 °F /  16.4 °C 29.84in /  1010.4hPa WSW 3.1mph /  5km/h 7mph /  11.3km/h 84% 0.00in /  0mm 248 W/m2
09:54 67 °F /  19.4 °C 61.6 °F /  16.4 °C 29.84in /  1010.4hPa WSW 2.4mph /  3.9km/h 5mph /  8km/h 83.1% 0.00in /  0mm 299 W/m2
09:59 67.3 °F /  19.6 °C 61.5 °F /  16.4 °C 29.84in /  1010.4hPa WSW 3.7mph /  6km/h 8mph /  12.9km/h 82.1% 0.00in /  0mm 404 W/m2
10:04 67.4 °F /  19.7 °C 61.3 °F /  16.3 °C 29.85in /  1010.7hPa SW 5mph /  8km/h 9mph /  14.5km/h 81% 0.00in /  0mm 336 W/m2
10:09 67.6 °F /  19.8 °C 61.4 °F /  16.3 °C 29.85in /  1010.7hPa WSW 4.7mph /  7.6km/h 8mph /  12.9km/h 80.6% 0.00in /  0mm 770 W/m2
10:14 68.6 °F /  20.3 °C 61.8 °F /  16.6 °C 29.84in /  1010.4hPa WSW 3.5mph /  5.6km/h 8mph /  12.9km/h 79.3% 0.00in /  0mm 770 W/m2
10:19 69.4 °F /  20.8 °C 61.8 °F /  16.6 °C 29.84in /  1010.4hPa WSW 4.4mph /  7.1km/h 10mph /  16.1km/h 76.9% 0.00in /  0mm 779 W/m2
10:24 69.6 °F /  20.9 °C 61.4 °F /  16.3 °C 29.84in /  1010.4hPa SW 4.3mph /  6.9km/h 10mph /  16.1km/h 75% 0.00in /  0mm 807 W/m2
10:29 70.3 °F /  21.3 °C 61.4 °F /  16.3 °C 29.84in /  1010.4hPa SSW 6.8mph /  10.9km/h 11mph /  17.7km/h 73.3% 0.00in /  0mm 805 W/m2
10:34 70.6 °F /  21.4 °C 61.2 °F /  16.2 °C 29.84in /  1010.4hPa SW 4.3mph /  6.9km/h 10mph /  16.1km/h 72.2% 0.00in /  0mm 772 W/m2
10:39 70.6 °F /  21.4 °C 61.1 °F /  16.2 °C 29.84in /  1010.4hPa WSW 4.9mph /  7.9km/h 9mph /  14.5km/h 72% 0.00in /  0mm 380 W/m2
10:44 70.4 °F /  21.3 °C 60.5 °F /  15.8 °C 29.84in /  1010.4hPa WSW 6.5mph /  10.5km/h 11mph /  17.7km/h 70.7% 0.00in /  0mm 262 W/m2
10:49 70.2 °F /  21.2 °C 59.9 °F /  15.5 °C 29.84in /  1010.4hPa WSW 5.6mph /  9km/h 9mph /  14.5km/h 70.2% 0.00in /  0mm 260 W/m2
10:54 70.3 °F /  21.3 °C 60.2 °F /  15.7 °C 29.84in /  1010.4hPa WSW 5.2mph /  8.4km/h 10mph /  16.1km/h 70.5% 0.00in /  0mm 267 W/m2
10:59 70.4 °F /  21.3 °C 60.2 °F /  15.7 °C 29.84in /  1010.4hPa SW 5.4mph /  8.7km/h 11mph /  17.7km/h 70.2% 0.00in /  0mm 343 W/m2
11:04 70.7 °F /  21.5 °C 60.4 °F /  15.8 °C 29.84in /  1010.4hPa SW 3.9mph /  6.3km/h 9mph /  14.5km/h 70% 0.00in /  0mm 229 W/m2
11:09 70.7 °F /  21.5 °C 60.6 °F /  15.9 °C 29.84in /  1010.4hPa West 6.1mph /  9.8km/h 12mph /  19.3km/h 70.4% 0.00in /  0mm 229 W/m2
11:14 70.6 °F /  21.4 °C 60.6 °F /  15.9 °C 29.84in /  1010.4hPa WSW 5.3mph /  8.5km/h 12mph /  19.3km/h 70.5% 0.00in /  0mm 401 W/m2
11:19 71.3 °F /  21.8 °C 60.5 °F /  15.8 °C 29.84in /  1010.4hPa WSW 4.8mph /  7.7km/h 11mph /  17.7km/h 68.7% 0.00in /  0mm 570 W/m2
11:24 71.8 °F /  22.1 °C 60.1 °F /  15.6 °C 29.84in /  1010.4hPa WSW 5.2mph /  8.4km/h 11mph /  17.7km/h 66.7% 0.00in /  0mm 315 W/m2
11:29 71.3 °F /  21.8 °C 59.7 °F /  15.4 °C 29.84in /  1010.4hPa West 7.4mph /  11.9km/h 13mph /  20.9km/h 66.8% 0.00in /  0mm 185 W/m2
11:34 71 °F /  21.7 °C 59.5 °F /  15.3 °C 29.84in /  1010.4hPa WSW 7.1mph /  11.4km/h 13mph /  20.9km/h 67.2% 0.00in /  0mm 241 W/m2
11:39 70.8 °F /  21.6 °C 59.4 °F /  15.2 °C 29.84in /  1010.4hPa WSW 5.7mph /  9.2km/h 13mph /  20.9km/h 67.4% 0.00in /  0mm 860 W/m2
11:44 71.6 °F /  22 °C 59.9 °F /  15.5 °C 29.84in /  1010.4hPa WSW 6.1mph /  9.8km/h 13mph /  20.9km/h 66.6% 0.00in /  0mm 921 W/m2
11:49 72.3 °F /  22.4 °C 60.1 °F /  15.6 °C 29.84in /  1010.4hPa West 6.9mph /  11.1km/h 11mph /  17.7km/h 65.5% 0.00in /  0mm 1000 W/m2
11:54 72.8 °F /  22.7 °C 60.4 °F /  15.8 °C 29.84in /  1010.4hPa WNW 6.5mph /  10.5km/h 14mph /  22.5km/h 65.2% 0.00in /  0mm 1000 W/m2
11:59 72.4 °F /  22.4 °C 59.5 °F /  15.3 °C 29.84in /  1010.4hPa West 6.5mph /  10.5km/h 14mph /  22.5km/h 63.8% 0.00in /  0mm 940 W/m2
12:04 72.3 °F /  22.4 °C 60 °F /  15.6 °C 29.84in /  1010.4hPa WNW 6.7mph /  10.8km/h 11mph /  17.7km/h 65.2% 0.00in /  0mm 320 W/m2
12:09 71.8 °F /  22.1 °C 59.5 °F /  15.3 °C 29.85in /  1010.7hPa WSW 7.2mph /  11.6km/h 14mph /  22.5km/h 65.4% 0.00in /  0mm 276 W/m2
12:14 71.8 °F /  22.1 °C 59.2 °F /  15.1 °C 29.85in /  1010.7hPa WSW 6.6mph /  10.6km/h 13mph /  20.9km/h 64.4% 0.00in /  0mm 381 W/m2
12:19 72.1 °F /  22.3 °C 59.3 °F /  15.2 °C 29.85in /  1010.7hPa West 5.8mph /  9.3km/h 14mph /  22.5km/h 64% 0.00in /  0mm 626 W/m2
12:24 72.1 °F /  22.3 °C 59.6 °F /  15.3 °C 29.85in /  1010.7hPa WNW 7.5mph /  12.1km/h 14mph /  22.5km/h 65% 0.00in /  0mm 867 W/m2
12:29 71.7 °F /  22.1 °C 59.4 °F /  15.2 °C 29.85in /  1010.7hPa WSW 7mph /  11.3km/h 13mph /  20.9km/h 65.2% 0.00in /  0mm 867 W/m2
12:34 71.8 °F /  22.1 °C 59.5 °F /  15.3 °C 29.85in /  1010.7hPa West 5.3mph /  8.5km/h 11mph /  17.7km/h 65.1% 0.00in /  0mm 461 W/m2
12:39 71.7 °F /  22.1 °C 59.1 °F /  15.1 °C 29.85in /  1010.7hPa WSW 5.5mph /  8.9km/h 9mph /  14.5km/h 64.5% 0.00in /  0mm 476 W/m2
12:44 71.8 °F /  22.1 °C 58.8 °F /  14.9 °C 29.85in /  1010.7hPa West 6.1mph /  9.8km/h 11mph /  17.7km/h 63.7% 0.00in /  0mm 635 W/m2
12:49 72 °F /  22.2 °C 58.7 °F /  14.8 °C 29.85in /  1010.7hPa WSW 6mph /  9.7km/h 11mph /  17.7km/h 63% 0.00in /  0mm 432 W/m2
12:54 71.9 °F /  22.2 °C 58.8 °F /  14.9 °C 29.85in /  1010.7hPa WSW 4.5mph /  7.2km/h 11mph /  17.7km/h 63.3% 0.00in /  0mm 422 W/m2
12:59 72 °F /  22.2 °C 59.7 °F /  15.4 °C 29.85in /  1010.7hPa West 5.3mph /  8.5km/h 10mph /  16.1km/h 65.5% 0.00in /  0mm 717 W/m2
13:04 72.1 °F /  22.3 °C 60 °F /  15.6 °C 29.85in /  1010.7hPa WNW 7.2mph /  11.6km/h 11mph /  17.7km/h 66% 0.00in /  0mm 729 W/m2
13:09 71.8 °F /  22.1 °C 59.5 °F /  15.3 °C 29.85in /  1010.7hPa West 4.9mph /  7.9km/h 11mph /  17.7km/h 65.3% 0.00in /  0mm 436 W/m2
13:14 71.4 °F /  21.9 °C 59.5 °F /  15.3 °C 29.85in /  1010.7hPa West 6.5mph /  10.5km/h 12mph /  19.3km/h 66% 0.00in /  0mm 251 W/m2
13:19 71 °F /  21.7 °C 59.1 °F /  15.1 °C 29.86in /  1011.1hPa West 5.1mph /  8.2km/h 9mph /  14.5km/h 66% 0.00in /  0mm 207 W/m2
13:24 70.9 °F /  21.6 °C 59 °F /  15 °C 29.86in /  1011.1hPa West 4.9mph /  7.9km/h 10mph /  16.1km/h 66% 0.00in /  0mm 250 W/m2
13:29 70.6 °F /  21.4 °C 58.7 °F /  14.8 °C 29.85in /  1010.7hPa West 5.4mph /  8.7km/h 10mph /  16.1km/h 66% 0.00in /  0mm 264 W/m2
13:34 70.5 °F /  21.4 °C 58.7 °F /  14.8 °C 29.85in /  1010.7hPa WNW 3.7mph /  6km/h 9mph /  14.5km/h 66.1% 0.00in /  0mm 253 W/m2
13:39 70.7 °F /  21.5 °C 58.5 °F /  14.7 °C 29.85in /  1010.7hPa West 5.2mph /  8.4km/h 9mph /  14.5km/h 65.4% 0.00in /  0mm 267 W/m2
13:44 70.5 °F /  21.4 °C 58.3 °F /  14.6 °C 29.85in /  1010.7hPa WNW 5.7mph /  9.2km/h 10mph /  16.1km/h 65.3% 0.00in /  0mm 269 W/m2
13:49 70.4 °F /  21.3 °C 58.5 °F /  14.7 °C 29.85in /  1010.7hPa WNW 4.1mph /  6.6km/h 8mph /  12.9km/h 65.8% 0.00in /  0mm 283 W/m2
13:54 70.6 °F /  21.4 °C 58.7 °F /  14.8 °C 29.85in /  1010.7hPa WNW 4mph /  6.4km/h 8mph /  12.9km/h 66% 0.00in /  0mm 283 W/m2
13:59 70.7 °F /  21.5 °C 58.6 °F /  14.8 °C 29.85in /  1010.7hPa WNW 4.6mph /  7.4km/h 8mph /  12.9km/h 65.6% 0.00in /  0mm 271 W/m2
14:04 70.8 °F /  21.6 °C 58.4 °F /  14.7 °C 29.85in /  1010.7hPa WNW 3.1mph /  5km/h 7mph /  11.3km/h 65% 0.00in /  0mm 345 W/m2
14:09 70.8 °F /  21.6 °C 58.4 °F /  14.7 °C 29.85in /  1010.7hPa West 5.8mph /  9.3km/h 10mph /  16.1km/h 65% 0.00in /  0mm 353 W/m2
14:14 70.9 °F /  21.6 °C 58.2 °F /  14.6 °C 29.85in /  1010.7hPa West 3.4mph /  5.5km/h 10mph /  16.1km/h 64.3% 0.00in /  0mm 318 W/m2
14:19 71.1 °F /  21.7 °C 58.5 °F /  14.7 °C 29.85in /  1010.7hPa West 5mph /  8km/h 8mph /  12.9km/h 64.6% 0.00in /  0mm 334 W/m2
14:24 71.1 °F /  21.7 °C 58.9 °F /  14.9 °C 29.85in /  1010.7hPa WNW 1.6mph /  2.6km/h 7mph /  11.3km/h 65.4% 0.00in /  0mm 431 W/m2
14:29 71.4 °F /  21.9 °C 58.9 °F /  14.9 °C 29.85in /  1010.7hPa NW 4.2mph /  6.8km/h 8mph /  12.9km/h 64.6% 0.00in /  0mm 547 W/m2
14:34 71.6 °F /  22 °C 59.1 °F /  15.1 °C 29.84in /  1010.4hPa NW 2mph /  3.2km/h 8mph /  12.9km/h 64.7% 0.00in /  0mm 608 W/m2
14:39 72.5 °F /  22.5 °C 59.1 °F /  15.1 °C 29.84in /  1010.4hPa West 2.9mph /  4.7km/h 7mph /  11.3km/h 62.8% 0.00in /  0mm 680 W/m2
14:44 72.3 °F /  22.4 °C 58.9 °F /  14.9 °C 29.84in /  1010.4hPa WSW 2.6mph /  4.2km/h 9mph /  14.5km/h 62.7% 0.00in /  0mm 461 W/m2
14:49 72.2 °F /  22.3 °C 58.9 °F /  14.9 °C 29.84in /  1010.4hPa WSW 3.2mph /  5.1km/h 9mph /  14.5km/h 63.1% 0.00in /  0mm 413 W/m2
14:54 72.1 °F /  22.3 °C 59.1 °F /  15.1 °C 29.84in /  1010.4hPa West 2.3mph /  3.7km/h 8mph /  12.9km/h 63.6% 0.00in /  0mm 448 W/m2
14:59 72.3 °F /  22.4 °C 59.1 °F /  15.1 °C 29.84in /  1010.4hPa West 1.4mph /  2.3km/h 8mph /  12.9km/h 63.1% 0.00in /  0mm 631 W/m2
15:04 72.9 °F /  22.7 °C 59.2 °F /  15.1 °C 29.84in /  1010.4hPa NW 3mph /  4.8km/h 7mph /  11.3km/h 62.4% 0.00in /  0mm 673 W/m2
15:09 73 °F /  22.8 °C 59.8 °F /  15.4 °C 29.84in /  1010.4hPa West 2.9mph /  4.7km/h 7mph /  11.3km/h 63.4% 0.00in /  0mm 571 W/m2
15:14 73.1 °F /  22.8 °C 60.9 °F /  16.1 °C 29.84in /  1010.4hPa WNW 1.9mph /  3.1km/h 7mph /  11.3km/h 65.7% 0.00in /  0mm 434 W/m2
15:19 73.2 °F /  22.9 °C 61.2 °F /  16.2 °C 29.83in /  1010hPa NW 2.4mph /  3.9km/h 7mph /  11.3km/h 66% 0.00in /  0mm 877 W/m2
15:24 72.8 °F /  22.7 °C 60.9 °F /  16.1 °C 29.83in /  1010hPa WNW 2.6mph /  4.2km/h 7mph /  11.3km/h 66.1% 0.00in /  0mm 243 W/m2
15:29 72.4 °F /  22.4 °C 60.9 °F /  16.1 °C 29.83in /  1010hPa WNW 2.7mph /  4.3km/h 5mph /  8km/h 66.9% 0.00in /  0mm 225 W/m2
15:34 72.3 °F /  22.4 °C 60.9 °F /  16.1 °C 29.83in /  1010hPa WNW 1.1mph /  1.8km/h 5mph /  8km/h 67.1% 0.00in /  0mm 359 W/m2
15:39 72.3 °F /  22.4 °C 60.8 °F /  16 °C 29.83in /  1010hPa NW 5.4mph /  8.7km/h 9mph /  14.5km/h 67% 0.00in /  0mm 276 W/m2
15:44 72 °F /  22.2 °C 60.4 °F /  15.8 °C 29.83in /  1010hPa NNW 4.3mph /  6.9km/h 8mph /  12.9km/h 67% 0.00in /  0mm 267 W/m2
15:49 72.1 °F /  22.3 °C 60.7 °F /  15.9 °C 29.83in /  1010hPa NW 2.4mph /  3.9km/h 7mph /  11.3km/h 67.2% 0.00in /  0mm 290 W/m2
15:54 72.2 °F /  22.3 °C 60.5 °F /  15.8 °C 29.83in /  1010hPa NW 3.7mph /  6km/h 9mph /  14.5km/h 66.5% 0.00in /  0mm 232 W/m2
15:59 72.1 °F /  22.3 °C 60.5 °F /  15.8 °C 29.83in /  1010hPa NW 2.2mph /  3.5km/h 5mph /  8km/h 66.8% 0.00in /  0mm 251 W/m2
16:04 72.4 °F /  22.4 °C 60.9 °F /  16.1 °C 29.83in /  1010hPa NW 2.5mph /  4km/h 7mph /  11.3km/h 66.9% 0.00in /  0mm 241 W/m2
16:09 72.3 °F /  22.4 °C 60.6 °F /  15.9 °C 29.83in /  1010hPa WNW 4mph /  6.4km/h 8mph /  12.9km/h 66.7% 0.00in /  0mm 209 W/m2
16:14 72 °F /  22.2 °C 60.4 °F /  15.8 °C 29.83in /  1010hPa West 4.3mph /  6.9km/h 8mph /  12.9km/h 67% 0.00in /  0mm 197 W/m2
16:19 71.6 °F /  22 °C 60.2 °F /  15.7 °C 29.83in /  1010hPa West 4.6mph /  7.4km/h 9mph /  14.5km/h 67.2% 0.00in /  0mm 174 W/m2
16:24 71.6 °F /  22 °C 60.3 °F /  15.7 °C 29.83in /  1010hPa West 4.1mph /  6.6km/h 9mph /  14.5km/h 67.8% 0.00in /  0mm 176 W/m2
16:29 71.4 °F /  21.9 °C 60.3 °F /  15.7 °C 29.83in /  1010hPa WNW 4.3mph /  6.9km/h 9mph /  14.5km/h 68% 0.00in /  0mm 197 W/m2
16:34 71.4 °F /  21.9 °C 60.3 °F /  15.7 °C 29.83in /  1010hPa West 4.9mph /  7.9km/h 9mph /  14.5km/h 68% 0.00in /  0mm 202 W/m2
16:39 71.4 °F /  21.9 °C 60.3 °F /  15.7 °C 29.83in /  1010hPa West 4.8mph /  7.7km/h 9mph /  14.5km/h 68% 0.00in /  0mm 202 W/m2
16:44 71.4 °F /  21.9 °C 60.3 °F /  15.7 °C 29.83in /  1010hPa WNW 4.2mph /  6.8km/h 8mph /  12.9km/h 68% 0.00in /  0mm 209 W/m2
16:49 71.4 °F /  21.9 °C 60.3 °F /  15.7 °C 29.83in /  1010hPa WNW 5mph /  8km/h 9mph /  14.5km/h 68% 0.00in /  0mm 209 W/m2
16:54 71.3 °F /  21.8 °C 60.2 °F /  15.7 °C 29.83in /  1010hPa WNW 5.6mph /  9km/h 10mph /  16.1km/h 68% 0.00in /  0mm 207 W/m2
16:59 71.3 °F /  21.8 °C 60.4 °F /  15.8 °C 29.83in /  1010hPa NW 3.5mph /  5.6km/h 7mph /  11.3km/h 68.5% 0.00in /  0mm 234 W/m2
17:04 71.5 °F /  21.9 °C 60.6 °F /  15.9 °C 29.83in /  1010hPa WNW 4.6mph /  7.4km/h 9mph /  14.5km/h 68.5% 0.00in /  0mm 285 W/m2
17:09 71.6 °F /  22 °C 60.5 °F /  15.8 °C 29.83in /  1010hPa NW 5.2mph /  8.4km/h 10mph /  16.1km/h 68.4% 0.00in /  0mm 216 W/m2
17:14 71.4 °F /  21.9 °C 60.8 °F /  16 °C 29.83in /  1010hPa WNW 4mph /  6.4km/h 9mph /  14.5km/h 68.9% 0.00in /  0mm 188 W/m2
17:19 71.2 °F /  21.8 °C 60.6 °F /  15.9 °C 29.83in /  1010hPa WNW 6.5mph /  10.5km/h 14mph /  22.5km/h 69% 0.00in /  0mm 253 W/m2
17:24 71.1 °F /  21.7 °C 60.4 °F /  15.8 °C 29.83in /  1010hPa WNW 4.9mph /  7.9km/h 10mph /  16.1km/h 69% 0.00in /  0mm 258 W/m2
17:29 71.1 °F /  21.7 °C 60.4 °F /  15.8 °C 29.83in /  1010hPa WNW 4.7mph /  7.6km/h 9mph /  14.5km/h 69% 0.00in /  0mm 192 W/m2
17:34 71 °F /  21.7 °C 60.3 °F /  15.7 °C 29.83in /  1010hPa WNW 5.7mph /  9.2km/h 9mph /  14.5km/h 69% 0.00in /  0mm 207 W/m2
17:39 70.7 °F /  21.5 °C 60.3 °F /  15.7 °C 29.83in /  1010hPa WNW 5.3mph /  8.5km/h 9mph /  14.5km/h 69.8% 0.00in /  0mm 223 W/m2
17:44 70.7 °F /  21.5 °C 60.2 °F /  15.7 °C 29.83in /  1010hPa West 6.1mph /  9.8km/h 10mph /  16.1km/h 69.4% 0.00in /  0mm 262 W/m2
17:49 70.4 °F /  21.3 °C 59.8 °F /  15.4 °C 29.82in /  1009.7hPa WNW 6.5mph /  10.5km/h 12mph /  19.3km/h 69% 0.00in /  0mm 185 W/m2
17:54 70.2 °F /  21.2 °C 59.6 °F /  15.3 °C 29.82in /  1009.7hPa WNW 4.3mph /  6.9km/h 11mph /  17.7km/h 69.2% 0.00in /  0mm 218 W/m2
17:59 70.2 °F /  21.2 °C 59.6 °F /  15.3 °C 29.82in /  1009.7hPa WNW 7mph /  11.3km/h 12mph /  19.3km/h 69% 0.00in /  0mm 213 W/m2
18:04 69.8 °F /  21 °C 59.3 °F /  15.2 °C 29.83in /  1010hPa WNW 4.8mph /  7.7km/h 12mph /  19.3km/h 69.4% 0.00in /  0mm 155 W/m2
18:09 69.7 °F /  20.9 °C 59.5 °F /  15.3 °C 29.83in /  1010hPa West 5.9mph /  9.5km/h 11mph /  17.7km/h 70% 0.00in /  0mm 141 W/m2
18:14 69.6 °F /  20.9 °C 59.4 °F /  15.2 °C 29.82in /  1009.7hPa WNW 4mph /  6.4km/h 11mph /  17.7km/h 70% 0.00in /  0mm 130 W/m2
18:19 69.4 °F /  20.8 °C 59.2 °F /  15.1 °C 29.83in /  1010hPa WNW 5.4mph /  8.7km/h 9mph /  14.5km/h 70% 0.00in /  0mm 130 W/m2
18:24 69 °F /  20.6 °C 58.7 °F /  14.8 °C 29.83in /  1010hPa WNW 6.3mph /  10.1km/h 11mph /  17.7km/h 70% 0.00in /  0mm 130 W/m2
18:29 68.9 °F /  20.5 °C 58.6 °F /  14.8 °C 29.83in /  1010hPa WNW 4.3mph /  6.9km/h 11mph /  17.7km/h 70% 0.00in /  0mm 144 W/m2
18:34 68.8 °F /  20.4 °C 58.5 °F /  14.7 °C 29.83in /  1010hPa WNW 5.5mph /  8.9km/h 12mph /  19.3km/h 70% 0.00in /  0mm 139 W/m2
18:39 68.6 °F /  20.3 °C 58.4 °F /  14.7 °C 29.83in /  1010hPa WNW 4.9mph /  7.9km/h 10mph /  16.1km/h 70% 0.00in /  0mm 137 W/m2
18:44 68.4 °F /  20.2 °C 58.3 °F /  14.6 °C 29.83in /  1010hPa WNW 5.6mph /  9km/h 12mph /  19.3km/h 70% 0.00in /  0mm 134 W/m2
18:49 68.4 °F /  20.2 °C 58.3 °F /  14.6 °C 29.83in /  1010hPa WNW 6mph /  9.7km/h 12mph /  19.3km/h 70% 0.00in /  0mm 130 W/m2
18:54 68.4 °F /  20.2 °C 58.3 °F /  14.6 °C 29.83in /  1010hPa WNW 5.2mph /  8.4km/h 10mph /  16.1km/h 70% 0.00in /  0mm 130 W/m2
18:59 68.4 °F /  20.2 °C 58.3 °F /  14.6 °C 29.83in /  1010hPa WNW 6.4mph /  10.3km/h 14mph /  22.5km/h 70.1% 0.00in /  0mm 125 W/m2
19:04 68 °F /  20 °C 57.9 °F /  14.4 °C 29.83in /  1010hPa WNW 6.7mph /  10.8km/h 14mph /  22.5km/h 70% 0.00in /  0mm 118 W/m2
19:09 67.8 °F /  19.9 °C 57.9 °F /  14.4 °C 29.83in /  1010hPa WNW 7.4mph /  11.9km/h 12mph /  19.3km/h 70.3% 0.00in /  0mm 107 W/m2
19:14 67.6 °F /  19.8 °C 57.9 °F /  14.4 °C 29.83in /  1010hPa WNW 6.1mph /  9.8km/h 12mph /  19.3km/h 71% 0.00in /  0mm 98 W/m2
19:19 67.6 °F /  19.8 °C 57.8 °F /  14.3 °C 29.83in /  1010hPa West 5.4mph /  8.7km/h 10mph /  16.1km/h 70.7% 0.00in /  0mm 91 W/m2
19:24 67.6 °F /  19.8 °C 57.5 °F /  14.2 °C 29.83in /  1010hPa WNW 5.9mph /  9.5km/h 12mph /  19.3km/h 70% 0.00in /  0mm 79 W/m2
19:29 67.5 °F /  19.7 °C 57.4 °F /  14.1 °C 29.84in /  1010.4hPa West 6.8mph /  10.9km/h 12mph /  19.3km/h 70% 0.00in /  0mm 76 W/m2
19:34 67.3 °F /  19.6 °C 57.2 °F /  14 °C 29.84in /  1010.4hPa West 5.2mph /  8.4km/h 11mph /  17.7km/h 70% 0.00in /  0mm 76 W/m2
19:39 67.1 °F /  19.5 °C 57 °F /  13.9 °C 29.84in /  1010.4hPa WNW 4.6mph /  7.4km/h 10mph /  16.1km/h 70% 0.00in /  0mm 65 W/m2
19:44 67.1 °F /  19.5 °C 57 °F /  13.9 °C 29.84in /  1010.4hPa WNW 5.5mph /  8.9km/h 12mph /  19.3km/h 70% 0.00in /  0mm 56 W/m2
19:49 66.9 °F /  19.4 °C 57 °F /  13.9 °C 29.84in /  1010.4hPa West 6mph /  9.7km/h 11mph /  17.7km/h 70.5% 0.00in /  0mm 42 W/m2
19:54 66.8 °F /  19.3 °C 57.1 °F /  13.9 °C 29.84in /  1010.4hPa WNW 6.6mph /  10.6km/h 12mph /  19.3km/h 71% 0.00in /  0mm 32 W/m2
19:59 66.7 °F /  19.3 °C 57 °F /  13.9 °C 29.84in /  1010.4hPa WNW 5.4mph /  8.7km/h 12mph /  19.3km/h 71% 0.00in /  0mm 30 W/m2
20:04 66.6 °F /  19.2 °C 57 °F /  13.9 °C 29.84in /  1010.4hPa WNW 4.8mph /  7.7km/h 9mph /  14.5km/h 71.4% 0.00in /  0mm 25 W/m2
20:09 66.4 °F /  19.1 °C 57 °F /  13.9 °C 29.84in /  1010.4hPa WNW 5.2mph /  8.4km/h 9mph /  14.5km/h 72% 0.00in /  0mm 25 W/m2
20:14 66.2 °F /  19 °C 56.8 °F /  13.8 °C 29.84in /  1010.4hPa WNW 4.1mph /  6.6km/h 9mph /  14.5km/h 72% 0.00in /  0mm 26 W/m2
20:19 66.2 °F /  19 °C 56.8 °F /  13.8 °C 29.83in /  1010hPa WNW 1.6mph /  2.6km/h 6mph /  9.7km/h 72% 0.00in /  0mm 26 W/m2
20:24 66 °F /  18.9 °C 56.7 °F /  13.7 °C 29.84in /  1010.4hPa WNW 3.3mph /  5.3km/h 8mph /  12.9km/h 72% 0.00in /  0mm 25 W/m2
20:29 65.8 °F /  18.8 °C 56.7 °F /  13.7 °C 29.84in /  1010.4hPa WNW 3.3mph /  5.3km/h 7mph /  11.3km/h 72.3% 0.00in /  0mm 21 W/m2
20:34 65.7 °F /  18.7 °C 56.9 °F /  13.8 °C 29.84in /  1010.4hPa West 2.6mph /  4.2km/h 8mph /  12.9km/h 73% 0.00in /  0mm 19 W/m2
20:39 65.7 °F /  18.7 °C 56.8 °F /  13.8 °C 29.84in /  1010.4hPa West 2.8mph /  4.5km/h 7mph /  11.3km/h 73% 0.00in /  0mm 16 W/m2
20:44 65.5 °F /  18.6 °C 56.7 °F /  13.7 °C 29.84in /  1010.4hPa West 3.3mph /  5.3km/h 7mph /  11.3km/h 73% 0.00in /  0mm 12 W/m2
20:49 65.3 °F /  18.5 °C 56.5 °F /  13.6 °C 29.84in /  1010.4hPa West 2.4mph /  3.9km/h 7mph /  11.3km/h 73% 0.00in /  0mm 9 W/m2
20:54 65.3 °F /  18.5 °C 56.5 °F /  13.6 °C 29.84in /  1010.4hPa West 3mph /  4.8km/h 6mph /  9.7km/h 73% 0.00in /  0mm 7 W/m2
20:59 65.1 °F /  18.4 °C 56.6 °F /  13.7 °C 29.84in /  1010.4hPa West 4.1mph /  6.6km/h 8mph /  12.9km/h 73.9% 0.00in /  0mm 5 W/m2
21:04 64.9 °F /  18.3 °C 56.5 °F /  13.6 °C 29.84in /  1010.4hPa WNW 4.1mph /  6.6km/h 8mph /  12.9km/h 74% 0.00in /  0mm 0 W/m2
21:09 64.8 °F /  18.2 °C 56.3 °F /  13.5 °C 29.84in /  1010.4hPa West 3.4mph /  5.5km/h 7mph /  11.3km/h 74% 0.00in /  0mm 0 W/m2
21:14 64.8 °F /  18.2 °C 56.3 °F /  13.5 °C 29.84in /  1010.4hPa West 2mph /  3.2km/h 6mph /  9.7km/h 74% 0.00in /  0mm 0 W/m2
21:19 64.6 °F /  18.1 °C 56.1 °F /  13.4 °C 29.84in /  1010.4hPa WNW 3.4mph /  5.5km/h 7mph /  11.3km/h 74% 0.00in /  0mm 0 W/m2
21:24 64.4 °F /  18 °C 55.9 °F /  13.3 °C 29.84in /  1010.4hPa West 4.1mph /  6.6km/h 7mph /  11.3km/h 74.2% 0.00in /  0mm 0 W/m2
21:29 64.2 °F /  17.9 °C 56.1 °F /  13.4 °C 29.84in /  1010.4hPa West 2.5mph /  4km/h 6mph /  9.7km/h 75% 0.00in /  0mm 0 W/m2
21:34 64.1 °F /  17.8 °C 56 °F /  13.3 °C 29.84in /  1010.4hPa West 3.5mph /  5.6km/h 6mph /  9.7km/h 75% 0.00in /  0mm 0 W/m2
21:39 64 °F /  17.8 °C 55.9 °F /  13.3 °C 29.84in /  1010.4hPa West 2.6mph /  4.2km/h 6mph /  9.7km/h 75% 0.00in /  0mm 0 W/m2
21:44 63.9 °F /  17.7 °C 55.8 °F /  13.2 °C 29.84in /  1010.4hPa West 2.3mph /  3.7km/h 5mph /  8km/h 75% 0.00in /  0mm 0 W/m2
21:49 63.9 °F /  17.7 °C 55.8 °F /  13.2 °C 29.84in /  1010.4hPa West 2.1mph /  3.4km/h 5mph /  8km/h 75% 0.00in /  0mm 0 W/m2
21:54 63.8 °F /  17.7 °C 55.7 °F /  13.2 °C 29.84in /  1010.4hPa West 2.4mph /  3.9km/h 5mph /  8km/h 75% 0.00in /  0mm 0 W/m2
21:59 63.7 °F /  17.6 °C 55.6 °F /  13.1 °C 29.84in /  1010.4hPa West 1.8mph /  2.9km/h 5mph /  8km/h 75% 0.00in /  0mm 0 W/m2
22:04 63.6 °F /  17.6 °C 55.5 °F /  13.1 °C 29.84in /  1010.4hPa West 1.6mph /  2.6km/h 5mph /  8km/h 75% 0.00in /  0mm 0 W/m2
22:09 63.5 °F /  17.5 °C 55.4 °F /  13 °C 29.84in /  1010.4hPa West 2.2mph /  3.5km/h 6mph /  9.7km/h 75% 0.00in /  0mm 0 W/m2
22:14 63.5 °F /  17.5 °C 55.4 °F /  13 °C 29.84in /  1010.4hPa WSW 1.4mph /  2.3km/h 5mph /  8km/h 75% 0.00in /  0mm 0 W/m2
22:19 63.4 °F /  17.4 °C 55.3 °F /  12.9 °C 29.84in /  1010.4hPa WSW 2.1mph /  3.4km/h 4mph /  6.4km/h 75% 0.00in /  0mm 0 W/m2
22:24 63.3 °F /  17.4 °C 55.2 °F /  12.9 °C 29.84in /  1010.4hPa West 2.2mph /  3.5km/h 6mph /  9.7km/h 75.1% 0.00in /  0mm 0 W/m2
22:29 63.2 °F /  17.3 °C 55.4 °F /  13 °C 29.84in /  1010.4hPa WNW 3mph /  4.8km/h 6mph /  9.7km/h 75.6% 0.00in /  0mm 0 W/m2
22:34 63.1 °F /  17.3 °C 55.4 °F /  13 °C 29.84in /  1010.4hPa WNW 2.9mph /  4.7km/h 5mph /  8km/h 76% 0.00in /  0mm 0 W/m2
22:39 63 °F /  17.2 °C 55.2 °F /  12.9 °C 29.84in /  1010.4hPa WNW 2.6mph /  4.2km/h 5mph /  8km/h 76% 0.00in /  0mm 0 W/m2
22:44 63 °F /  17.2 °C 55.2 °F /  12.9 °C 29.84in /  1010.4hPa West 3.8mph /  6.1km/h 7mph /  11.3km/h 76% 0.00in /  0mm 0 W/m2
22:49 63 °F /  17.2 °C 55.2 °F /  12.9 °C 29.84in /  1010.4hPa West 3.2mph /  5.1km/h 6mph /  9.7km/h 76% 0.00in /  0mm 0 W/m2
22:54 62.9 °F /  17.2 °C 55.5 °F /  13.1 °C 29.83in /  1010hPa West 2.1mph /  3.4km/h 5mph /  8km/h 76.9% 0.00in /  0mm 0 W/m2
22:59 62.8 °F /  17.1 °C 55.4 °F /  13 °C 29.83in /  1010hPa West 2.8mph /  4.5km/h 6mph /  9.7km/h 77% 0.00in /  0mm 0 W/m2
23:04 62.7 °F /  17.1 °C 55.3 °F /  12.9 °C 29.83in /  1010hPa WNW 1.9mph /  3.1km/h 4mph /  6.4km/h 77% 0.00in /  0mm 0 W/m2
23:09 62.6 °F /  17 °C 55.4 °F /  13 °C 29.83in /  1010hPa WNW 1.8mph /  2.9km/h 5mph /  8km/h 77.5% 0.00in /  0mm 0 W/m2
23:14 62.6 °F /  17 °C 55.6 °F /  13.1 °C 29.84in /  1010.4hPa WNW 2.1mph /  3.4km/h 5mph /  8km/h 78% 0.00in /  0mm 0 W/m2
23:19 62.6 °F /  17 °C 55.6 °F /  13.1 °C 29.84in /  1010.4hPa West 2.5mph /  4km/h 8mph /  12.9km/h 78% 0.00in /  0mm 0 W/m2
23:24 62.6 °F /  17 °C 55.6 °F /  13.1 °C 29.83in /  1010hPa WNW 2mph /  3.2km/h 8mph /  12.9km/h 78% 0.00in /  0mm 0 W/m2
23:29 62.6 °F /  17 °C 55.6 °F /  13.1 °C 29.83in /  1010hPa WNW 1.5mph /  2.4km/h 5mph /  8km/h 78.1% 0.00in /  0mm 0 W/m2
23:34 62.4 °F /  16.9 °C 55.8 °F /  13.2 °C 29.83in /  1010hPa West 4mph /  6.4km/h 6mph /  9.7km/h 79% 0.00in /  0mm 0 W/m2
23:39 62.4 °F /  16.9 °C 55.8 °F /  13.2 °C 29.83in /  1010hPa West 1.3mph /  2.1km/h 6mph /  9.7km/h 79% 0.00in /  0mm 0 W/m2
23:44 62.4 °F /  16.9 °C 55.8 °F /  13.2 °C 29.83in /  1010hPa West 3.3mph /  5.3km/h 7mph /  11.3km/h 79% 0.00in /  0mm 0 W/m2
23:49 62.3 °F /  16.8 °C 55.7 °F /  13.2 °C 29.83in /  1010hPa West 2.9mph /  4.7km/h 6mph /  9.7km/h 79% 0.00in /  0mm 0 W/m2
23:54 62.2 °F /  16.8 °C 55.8 °F /  13.2 °C 29.83in /  1010hPa West 3.1mph /  5km/h 6mph /  9.7km/h 79.8% 0.00in /  0mm 0 W/m2
23:59 62.2 °F /  16.8 °C 55.9 °F /  13.3 °C 29.83in /  1010hPa West 2.5mph /  4km/h 6mph /  9.7km/h 80% 0.00in /  0mm 0 W/m2
Bath Spa Weather
Compliments of Weather Underground - 2 mb